Time;durP1;ratioP1;P1;durP2;ratioP2;P2;SDS_P1;SDS_P2;PMS_P1;PMS_P2;Temp;Humidity;BMP_temperature;BMP_pressure;BME280_temperature;BME280_humidity;BME280_pressure;Samples;Min_cycle;Max_cycle;Signal;HPM_P1;HPM_P2
2023/08/13 00:00:59;;;;;;;0.00;0.00;;;;;;;17.94;100.00;101565.88;5071104;28;20031;-46
2023/08/13 00:03:24;;;;;;;0.00;0.00;;;;;;;17.90;100.00;101576.34;5071234;28;20040;-44
2023/08/13 00:05:50;;;;;;;0.00;0.00;;;;;;;17.90;100.00;101573.63;5071703;28;20031;-47
2023/08/13 00:08:15;;;;;;;0.00;0.00;;;;;;;17.83;100.00;101566.53;5071257;28;20571;-46
2023/08/13 00:10:40;;;;;;;0.00;0.00;;;;;;;17.81;100.00;101569.47;5071198;28;20039;-47
2023/08/13 00:13:06;;;;;;;0.00;0.00;;;;;;;17.78;100.00;101564.41;5071443;28;20025;-44
2023/08/13 00:15:31;;;;;;;0.00;0.00;;;;;;;17.74;100.00;101561.25;5071506;28;20039;-45
2023/08/13 00:17:56;;;;;;;0.00;0.00;;;;;;;17.73;100.00;101567.78;5071397;28;20020;-45
2023/08/13 00:20:22;;;;;;;0.00;0.00;;;;;;;17.71;100.00;101563.59;5071535;28;20477;-43
2023/08/13 00:22:47;;;;;;;0.00;0.00;;;;;;;17.71;100.00;101564.41;5071548;28;20028;-44
2023/08/13 00:25:12;;;;;;;0.00;0.00;;;;;;;17.74;100.00;101565.88;5071727;28;20021;-47
2023/08/13 00:27:38;;;;;;;0.00;0.00;;;;;;;17.63;100.00;101556.47;5070936;28;20539;-48
2023/08/13 00:30:04;;;;;;;0.00;0.00;;;;;;;17.58;100.00;101563.59;5071073;28;20478;-46
2023/08/13 00:32:29;;;;;;;0.00;0.00;;;;;;;17.61;100.00;101555.84;5071041;28;20033;-49
2023/08/13 00:34:55;;;;;;;0.00;0.00;;;;;;;17.59;100.00;101557.97;5071256;28;20471;-43
2023/08/13 00:37:20;;;;;;;0.00;0.00;;;;;;;17.58;100.00;101560.88;5070856;28;20025;-45
2023/08/13 00:39:45;;;;;;;0.00;0.00;;;;;;;17.59;100.00;101560.69;5070691;28;20359;-42
2023/08/13 00:42:11;;;;;;;0.00;0.00;;;;;;;17.59;100.00;101562.53;5070666;28;20032;-45
2023/08/13 00:44:36;;;;;;;0.00;0.00;;;;;;;17.55;100.00;101559.41;5070616;28;20078;-45
2023/08/13 00:47:02;;;;;;;0.00;0.00;;;;;;;17.54;100.00;101557.75;5070797;28;20024;-45
2023/08/13 00:49:27;;;;;;;0.00;0.00;;;;;;;17.49;100.00;101563.00;5053204;28;20031;-45
2023/08/13 00:51:52;;;;;;;0.00;0.00;;;;;;;17.40;100.00;101567.78;5070871;28;20463;-45
2023/08/13 00:54:18;;;;;;;0.00;0.00;;;;;;;17.42;100.00;101564.88;5070299;28;20123;-44
2023/08/13 00:56:45;;;;;;;0.00;0.00;;;;;;;17.36;100.00;101563.81;5052803;28;20024;-42
2023/08/13 00:59:11;;;;;;;0.00;0.00;;;;;;;17.37;100.00;101564.66;5070270;28;20596;-45
2023/08/13 01:01:36;;;;;;;0.00;0.00;;;;;;;17.34;100.00;101572.19;5070673;28;20099;-47
2023/08/13 01:04:03;;;;;;;0.00;0.00;;;;;;;17.38;100.00;101563.59;5070150;28;20051;-44
2023/08/13 01:06:52;;;;;;;0.00;0.00;;;;;;;17.31;100.00;101555.44;5070875;28;20032;-47
2023/08/13 01:09:46;;;;;;;0.00;0.00;;;;;;;17.32;100.00;101554.38;5052602;28;20039;-44
2023/08/13 01:12:11;;;;;;;0.00;0.00;;;;;;;17.28;100.00;101564.88;5069786;28;20045;-45
2023/08/13 01:14:53;;;;;;;0.00;0.00;;;;;;;17.26;100.00;101566.13;5070481;28;20028;-47
2023/08/13 01:17:18;;;;;;;0.00;0.00;;;;;;;17.24;100.00;101562.75;5052392;28;20047;-43
2023/08/13 01:19:44;;;;;;;0.00;0.00;;;;;;;17.20;100.00;101573.22;5052322;28;20024;-44
2023/08/13 01:22:09;;;;;;;0.00;0.00;;;;;;;17.19;100.00;101571.53;5069622;28;20033;-43
2023/08/13 01:24:35;;;;;;;0.00;0.00;;;;;;;17.19;100.00;101571.53;5070266;28;20032;-45
2023/08/13 01:27:06;;;;;;;0.00;0.00;;;;;;;17.18;100.00;101569.88;5052626;28;20031;-45
2023/08/13 01:29:39;;;;;;;0.00;0.00;;;;;;;17.15;100.00;101570.31;5070612;28;20021;-45
2023/08/13 01:32:06;;;;;;;0.00;0.00;;;;;;;17.18;100.00;101575.31;5070257;28;20078;-45
2023/08/13 01:34:31;;;;;;;0.00;0.00;;;;;;;17.14;100.00;101578.66;5052519;28;20467;-46
2023/08/13 01:36:57;;;;;;;0.00;0.00;;;;;;;17.14;100.00;101571.34;5070368;28;20029;-47
2023/08/13 01:39:23;;;;;;;0.00;0.00;;;;;;;17.17;100.00;101578.22;5052062;28;20348;-45
2023/08/13 01:41:54;;;;;;;0.00;0.00;;;;;;;17.19;100.00;101566.09;5051943;28;20029;-47
2023/08/13 01:44:19;;;;;;;0.00;0.00;;;;;;;17.22;100.00;101571.16;5069967;28;20028;-43
2023/08/13 01:46:45;;;;;;;0.00;0.00;;;;;;;17.22;100.00;101565.72;5070176;28;20387;-45
2023/08/13 01:49:10;;;;;;;0.00;0.00;;;;;;;17.21;100.00;101568.63;5070079;28;20039;-42
2023/08/13 01:51:36;;;;;;;0.00;0.00;;;;;;;17.26;100.00;101566.94;5052218;28;20025;-43
2023/08/13 01:54:01;;;;;;;0.00;0.00;;;;;;;17.26;100.00;101558.78;5069785;28;20390;-45
2023/08/13 01:56:26;;;;;;;0.00;0.00;;;;;;;17.25;100.00;101570.72;5070308;28;20032;-44
2023/08/13 01:58:52;;;;;;;0.00;0.00;;;;;;;17.25;100.00;101559.84;5070897;28;20159;-42
2023/08/13 02:01:17;;;;;;;0.00;0.00;;;;;;;17.26;100.00;101556.06;5071331;28;20414;-44
2023/08/13 02:03:43;;;;;;;0.00;0.00;;;;;;;17.25;100.00;101554.41;5070474;28;20024;-44
2023/08/13 02:06:09;;;;;;;0.00;0.00;;;;;;;17.21;100.00;101552.31;5070180;28;20020;-44
2023/08/13 02:08:34;;;;;;;0.00;0.00;;;;;;;17.29;100.00;101562.97;5069945;28;20025;-46
2023/08/13 02:10:59;;;;;;;0.00;0.00;;;;;;;17.28;100.00;101566.75;5069790;28;20533;-46
2023/08/13 02:13:25;;;;;;;0.00;0.00;;;;;;;17.33;100.00;101566.97;5069542;28;20036;-46
2023/08/13 02:15:50;;;;;;;0.00;0.00;;;;;;;17.33;100.00;101565.06;5051610;28;20420;-43
2023/08/13 02:18:15;;;;;;;0.00;0.00;;;;;;;17.34;100.00;101566.75;5069842;28;20108;-44
2023/08/13 02:20:41;;;;;;;0.00;0.00;;;;;;;17.33;100.00;101556.91;5069528;28;20395;-45
2023/08/13 02:23:06;;;;;;;0.00;0.00;;;;;;;17.36;100.00;101560.28;5069507;28;20554;-44
2023/08/13 02:25:31;;;;;;;0.00;0.00;;;;;;;17.37;100.00;101564.66;5069861;28;20056;-44
2023/08/13 02:27:57;;;;;;;0.00;0.00;;;;;;;17.28;100.00;101564.88;5069868;28;20146;-45
2023/08/13 02:30:22;;;;;;;0.00;0.00;;;;;;;17.30;100.00;101551.91;5069693;28;20544;-46
2023/08/13 02:32:48;;;;;;;0.00;0.00;;;;;;;17.30;100.00;101562.78;5051797;28;20158;-43
2023/08/13 02:35:14;;;;;;;0.00;0.00;;;;;;;17.28;100.00;101570.31;5071522;28;20024;-43
2023/08/13 02:37:39;;;;;;;0.00;0.00;;;;;;;17.27;100.00;101574.09;5073717;28;20028;-45
2023/08/13 02:40:06;;;;;;;0.00;0.00;;;;;;;17.20;100.00;101570.50;5073343;28;20017;-45
2023/08/13 02:42:32;;;;;;;0.00;0.00;;;;;;;17.21;100.00;101566.72;5072805;28;20025;-45
2023/08/13 02:44:57;;;;;;;0.00;0.00;;;;;;;17.20;100.00;101575.97;5073305;28;20021;-47
2023/08/13 02:47:24;;;;;;;0.00;0.00;;;;;;;17.18;100.00;101566.31;5072977;28;20028;-44
2023/08/13 02:49:49;;;;;;;0.00;0.00;;;;;;;17.16;100.00;101566.53;5072676;28;20029;-45
2023/08/13 02:52:15;;;;;;;0.00;0.00;;;;;;;17.15;100.00;101564.84;5073233;28;20052;-43
2023/08/13 02:54:40;;;;;;;0.00;0.00;;;;;;;17.19;100.00;101557.09;5073078;28;20025;-45
2023/08/13 02:57:06;;;;;;;0.00;0.00;;;;;;;17.17;100.00;101567.34;5073322;28;20466;-45
2023/08/13 02:59:31;;;;;;;0.00;0.00;;;;;;;17.13;100.00;101553.34;5072957;28;20186;-44
2023/08/13 03:01:56;;;;;;;0.00;0.00;;;;;;;17.16;100.00;101558.38;5072847;28;20031;-45
2023/08/13 03:04:22;;;;;;;0.00;0.00;;;;;;;17.16;100.00;101554.81;5073192;28;20031;-43
2023/08/13 03:06:47;;;;;;;0.00;0.00;;;;;;;17.17;100.00;101551.91;5073629;28;20383;-47
2023/08/13 03:09:21;;;;;;;0.00;0.00;;;;;;;17.13;100.00;101552.50;5072833;28;20434;-45
2023/08/13 03:11:47;;;;;;;0.00;0.00;;;;;;;17.13;100.00;101549.78;5072735;28;20063;-45
2023/08/13 03:14:13;;;;;;;0.00;0.00;;;;;;;17.14;100.00;101552.31;5073200;28;20052;-43
2023/08/13 03:16:38;;;;;;;0.00;0.00;;;;;;;17.18;100.00;101550.00;5072469;28;20115;-46
2023/08/13 03:19:03;;;;;;;0.00;0.00;;;;;;;17.14;100.00;101546.88;5072523;28;20115;-43
2023/08/13 03:21:29;;;;;;;0.00;0.00;;;;;;;17.17;100.00;101556.47;5072534;28;20051;-45
2023/08/13 03:23:54;;;;;;;0.00;0.00;;;;;;;17.22;100.00;101552.09;5072322;28;20036;-46
2023/08/13 03:26:19;;;;;;;0.00;0.00;;;;;;;17.08;100.00;101547.69;5072222;28;20025;-44
2023/08/13 03:28:45;;;;;;;0.00;0.00;;;;;;;17.02;100.00;101540.38;5072627;28;20035;-42
2023/08/13 03:31:11;;;;;;;0.00;0.00;;;;;;;17.03;100.00;101544.75;5071837;28;20035;-44
2023/08/13 03:33:37;;;;;;;0.00;0.00;;;;;;;17.01;100.00;101541.41;5071791;28;20064;-42
2023/08/13 03:36:02;;;;;;;0.00;0.00;;;;;;;17.05;100.00;101553.56;5072350;28;20048;-48
2023/08/13 03:38:28;;;;;;;0.00;0.00;;;;;;;17.05;100.00;101559.00;5072227;28;20428;-45
2023/08/13 03:40:54;;;;;;;0.00;0.00;;;;;;;17.06;100.00;101560.66;5072229;28;20028;-42
2023/08/13 03:43:20;;;;;;;0.00;0.00;;;;;;;17.03;100.00;101550.19;5071862;28;20162;-46
2023/08/13 03:45:45;;;;;;;0.00;0.00;;;;;;;17.05;100.00;101548.09;5053600;28;20058;-43
2023/08/13 03:48:10;;;;;;;0.00;0.00;;;;;;;17.01;100.00;101546.84;5071798;28;20052;-47
2023/08/13 03:50:40;;;;;;;0.45;0.00;;;;;;;16.92;100.00;101554.38;5071749;28;20386;-46
2023/08/13 03:53:06;;;;;;;0.00;0.00;;;;;;;16.88;100.00;101556.66;5071766;28;20107;-45
2023/08/13 03:55:31;;;;;;;0.00;0.00;;;;;;;16.87;100.00;101568.56;5071950;28;20108;-43
2023/08/13 03:57:56;;;;;;;0.00;0.00;;;;;;;16.87;100.00;101568.56;5071648;28;20060;-42
2023/08/13 04:00:22;;;;;;;0.00;0.00;;;;;;;16.82;100.00;101565.63;5071415;28;20433;-43
2023/08/13 04:02:50;;;;;;;0.00;0.00;;;;;;;16.78;100.00;101572.53;5071238;28;20039;-45
2023/08/13 04:05:16;;;;;;;0.00;0.00;;;;;;;16.76;100.00;101571.88;5071828;28;20032;-46
2023/08/13 04:07:41;;;;;;;0.00;0.00;;;;;;;16.75;100.00;101575.63;5071801;28;20025;-44
2023/08/13 04:10:07;;;;;;;0.00;0.00;;;;;;;16.71;100.00;101574.34;5071472;28;20025;-49
2023/08/13 04:12:32;;;;;;;0.00;0.00;;;;;;;16.68;100.00;101577.50;5061545;28;20044;-45
2023/08/13 04:14:58;;;;;;;0.00;0.00;;;;;;;16.74;100.00;101582.09;5070789;28;20146;-47
2023/08/13 04:17:23;;;;;;;0.00;0.00;;;;;;;16.71;100.00;101579.78;5070664;28;20379;-46
2023/08/13 04:19:48;;;;;;;0.00;0.00;;;;;;;16.77;100.00;101573.59;5070635;28;20025;-48
2023/08/13 04:22:14;;;;;;;0.00;0.00;;;;;;;16.74;100.00;101573.09;5070872;28;20027;-43
2023/08/13 04:24:39;;;;;;;0.00;0.00;;;;;;;16.79;100.00;101586.97;5071183;28;20493;-47
2023/08/13 04:27:05;;;;;;;0.00;0.00;;;;;;;16.78;100.00;101585.28;5071122;28;20024;-45
2023/08/13 04:29:31;;;;;;;0.00;0.00;;;;;;;16.73;100.00;101594.03;5070076;28;20028;-45
2023/08/13 04:31:57;;;;;;;0.00;0.00;;;;;;;16.75;100.00;101581.06;5070628;28;20032;-46
2023/08/13 04:34:22;;;;;;;0.00;0.00;;;;;;;16.76;100.00;101590.06;5070928;28;20044;-45
2023/08/13 04:36:47;;;;;;;0.00;0.00;;;;;;;16.78;100.00;101597.00;5070894;28;20382;-45
2023/08/13 04:39:13;;;;;;;0.00;0.00;;;;;;;16.83;100.00;101604.56;5070815;28;20074;-43
2023/08/13 04:41:40;;;;;;;0.00;0.00;;;;;;;16.81;100.00;101593.03;5070528;28;20025;-47
2023/08/13 04:44:05;;;;;;;0.00;0.00;;;;;;;16.81;100.00;101593.88;5070241;28;20103;-45
2023/08/13 04:46:31;;;;;;;0.00;0.00;;;;;;;16.87;100.00;101595.75;5071186;28;20111;-43
2023/08/13 04:48:56;;;;;;;0.00;0.00;;;;;;;16.87;100.00;101595.75;5071094;28;20029;-45
2023/08/13 04:51:21;;;;;;;0.00;0.00;;;;;;;16.87;100.00;101600.34;5071051;28;20451;-44
2023/08/13 04:53:47;;;;;;;0.00;0.00;;;;;;;16.93;100.00;101598.69;5069432;28;20024;-45
2023/08/13 04:56:12;;;;;;;0.00;0.00;;;;;;;16.96;100.00;101598.31;5054786;28;20028;-45
2023/08/13 04:58:38;;;;;;;0.00;0.00;;;;;;;16.93;100.00;101591.41;5067458;28;20070;-44
2023/08/13 05:01:04;;;;;;;0.00;0.00;;;;;;;17.00;100.00;101588.69;5067975;28;20028;-43
2023/08/13 05:03:30;;;;;;;0.00;0.00;;;;;;;16.94;100.00;101593.06;5064467;28;20426;-45
2023/08/13 05:05:55;;;;;;;0.00;0.00;;;;;;;16.92;100.00;101594.31;5068499;28;20051;-45
2023/08/13 05:08:21;;;;;;;0.00;0.00;;;;;;;16.88;100.00;101593.91;5065038;28;20074;-45
2023/08/13 05:10:47;;;;;;;0.00;0.00;;;;;;;16.89;100.00;101588.25;5061848;28;20032;-45
2023/08/13 05:13:13;;;;;;;0.00;0.00;;;;;;;16.88;100.00;101581.13;5068217;28;20025;-46
2023/08/13 05:15:39;;;;;;;0.00;0.00;;;;;;;16.87;100.00;101584.88;5066679;28;20055;-46
2023/08/13 05:18:05;;;;;;;0.00;0.00;;;;;;;16.85;100.00;101586.13;5062787;28;20479;-43
2023/08/13 05:20:30;;;;;;;0.00;0.00;;;;;;;16.82;100.00;101589.25;5064085;28;20123;-44
2023/08/13 05:22:55;;;;;;;0.00;0.00;;;;;;;16.82;100.00;101587.38;5063248;28;20082;-44
2023/08/13 05:25:20;;;;;;;0.00;0.00;;;;;;;16.80;100.00;101588.66;5068029;28;20040;-42
2023/08/13 05:27:46;;;;;;;0.00;0.00;;;;;;;16.84;100.00;101590.72;5068085;28;20546;-48
2023/08/13 05:30:11;;;;;;;0.00;0.00;;;;;;;16.87;100.00;101593.03;5067774;28;20047;-47
2023/08/13 05:32:37;;;;;;;0.00;0.00;;;;;;;16.98;100.00;101593.47;5061866;28;20033;-44
2023/08/13 05:35:03;;;;;;;0.00;0.00;;;;;;;17.08;100.00;101588.47;5049845;28;20028;-46
2023/08/13 05:37:28;;;;;;;0.00;0.00;;;;;;;17.17;100.00;101584.53;5061695;28;20087;-45
2023/08/13 05:39:53;;;;;;;0.00;0.00;;;;;;;17.22;100.00;101587.47;5067214;28;20520;-46
2023/08/13 05:42:19;;;;;;;0.00;0.00;;;;;;;17.27;100.00;101579.53;5068171;28;20060;-44
2023/08/13 05:44:45;;;;;;;0.00;0.00;;;;;;;17.37;100.00;101583.69;5068345;28;20054;-45
2023/08/13 05:47:10;;;;;;;0.00;0.00;;;;;;;17.47;100.00;101575.97;5064714;28;20054;-49
2023/08/13 05:49:35;;;;;;;0.00;0.00;;;;;;;17.41;100.00;101580.38;5061890;28;20029;-46
2023/08/13 05:52:01;;;;;;;0.00;0.00;;;;;;;17.46;100.00;101580.56;5068016;28;20036;-44
2023/08/13 05:54:26;;;;;;;0.00;0.00;;;;;;;17.64;100.00;101579.94;5068244;28;20012;-45
2023/08/13 05:56:51;;;;;;;0.00;0.00;;;;;;;17.82;100.00;101579.28;5050152;28;20455;-47
2023/08/13 05:59:17;;;;;;;0.00;0.00;;;;;;;18.29;100.00;101571.84;5065602;28;20040;-43
2023/08/13 06:01:42;;;;;;;0.00;0.00;;;;;;;18.71;100.00;101568.72;5066173;28;20036;-42
2023/08/13 06:04:08;;;;;;;0.00;0.00;;;;;;;18.47;100.00;101562.13;5065691;28;20441;-42
2023/08/13 06:06:33;;;;;;;0.00;0.00;;;;;;;18.47;100.00;101557.50;5066530;28;20123;-41
2023/08/13 06:08:58;;;;;;;0.00;0.00;;;;;;;18.24;100.00;101565.38;5067431;28;20024;-42
2023/08/13 06:11:24;;;;;;;0.00;0.00;;;;;;;18.25;100.00;101558.88;5074675;28;20471;-42
2023/08/13 06:13:50;;;;;;;0.00;0.00;;;;;;;18.15;100.00;101570.22;5075200;28;20153;-43
2023/08/13 06:16:15;;;;;;;0.00;0.00;;;;;;;18.31;100.00;101574.38;5073689;28;20024;-41
2023/08/13 06:18:40;;;;;;;0.00;0.00;;;;;;;18.45;100.00;101572.41;5073422;28;20395;-42
2023/08/13 06:21:06;;;;;;;0.00;0.00;;;;;;;18.54;100.00;101571.13;5073269;28;20017;-43
2023/08/13 06:23:31;;;;;;;0.00;0.00;;;;;;;18.74;100.00;101563.66;5073506;28;20016;-44
2023/08/13 06:25:57;;;;;;;0.00;0.00;;;;;;;19.12;100.00;101562.00;5073692;28;20016;-43
2023/08/13 06:28:22;;;;;;;0.00;0.00;;;;;;;19.29;100.00;101560.38;5073073;28;20107;-45
2023/08/13 06:30:48;;;;;;;0.00;0.00;;;;;;;19.19;100.00;101554.59;5072683;28;20028;-46
2023/08/13 06:33:13;;;;;;;0.00;0.00;;;;;;;18.92;100.00;101552.03;5073135;28;20475;-46
2023/08/13 06:35:40;;;;;;;0.00;0.00;;;;;;;18.76;100.00;101560.75;5073098;28;20074;-45
2023/08/13 06:38:05;;;;;;;0.00;0.00;;;;;;;18.57;100.00;101567.97;5073437;28;20103;-43
2023/08/13 06:40:32;;;;;;;0.00;0.00;;;;;;;18.44;100.00;101560.69;5072651;28;20535;-43
2023/08/13 06:42:57;;;;;;;0.00;0.00;;;;;;;18.51;100.00;101569.69;5072923;28;20021;-45
2023/08/13 06:45:26;;;;;;;0.00;0.00;;;;;;;18.45;100.00;101577.88;5072786;28;20482;-41
2023/08/13 06:47:51;;;;;;;0.00;0.00;;;;;;;18.39;100.00;101577.66;5070855;28;20040;-43
2023/08/13 06:50:17;;;;;;;0.00;0.00;;;;;;;18.36;100.00;101582.72;5071899;28;20367;-48
2023/08/13 06:52:42;;;;;;;0.00;0.00;;;;;;;18.38;100.00;101589.63;5072518;28;20033;-45
2023/08/13 06:55:08;;;;;;;0.00;0.00;;;;;;;18.24;100.00;101589.88;5072007;28;20070;-44
2023/08/13 06:57:33;;;;;;;0.00;0.00;;;;;;;18.18;100.00;101586.97;5072660;28;20039;-45
2023/08/13 06:59:58;;;;;;;0.00;0.00;;;;;;;18.18;100.00;101581.53;5072585;28;20044;-44
2023/08/13 07:02:24;;;;;;;0.00;0.00;;;;;;;18.15;100.00;101581.13;5073279;28;20078;-44
2023/08/13 07:04:49;;;;;;;0.00;0.00;;;;;;;18.24;100.00;101588.00;5073141;28;20021;-44
2023/08/13 07:07:15;;;;;;;0.00;0.00;;;;;;;18.30;100.00;101581.72;5072700;28;20032;-44
2023/08/13 07:09:40;;;;;;;0.00;0.00;;;;;;;18.54;100.00;101574.69;5072706;28;20056;-42
2023/08/13 07:12:06;;;;;;;0.00;0.00;;;;;;;18.42;100.00;101584.59;5072643;28;20033;-42
2023/08/13 07:14:31;;;;;;;0.00;0.00;;;;;;;18.55;100.00;101576.34;5073037;28;20402;-42
2023/08/13 07:16:56;;;;;;;0.00;0.00;;;;;;;18.72;100.00;101564.94;5072809;28;20099;-43
2023/08/13 07:19:22;;;;;;;0.00;0.00;;;;;;;18.82;100.00;101568.06;5072581;28;20020;-44
2023/08/13 07:21:47;;;;;;;0.00;0.00;;;;;;;18.80;100.00;101559.25;5071853;28;20059;-41
2023/08/13 07:24:13;;;;;;;0.00;0.00;;;;;;;18.93;100.00;101583.75;5072331;28;20032;-44
2023/08/13 07:26:38;;;;;;;0.00;0.00;;;;;;;18.93;100.00;101575.56;5072353;28;20095;-44
2023/08/13 07:29:06;;;;;;;0.00;0.00;;;;;;;19.17;100.00;101562.16;5073003;28;20485;-42
2023/08/13 07:31:32;;;;;;;0.00;0.00;;;;;;;19.33;100.00;101567.06;5072466;28;20036;-44
2023/08/13 07:33:57;;;;;;;0.00;0.00;;;;;;;19.26;100.00;101569.84;5072687;28;20044;-43
2023/08/13 07:36:23;;;;;;;0.00;0.00;;;;;;;19.37;100.00;101575.66;5072499;28;20128;-42
2023/08/13 07:38:48;;;;;;;0.00;0.00;;;;;;;19.34;100.00;101578.81;5071595;28;20033;-46
2023/08/13 07:41:13;;;;;;;0.00;0.00;;;;;;;19.40;100.00;101578.75;5071703;28;20070;-45
2023/08/13 07:43:39;;;;;;;0.00;0.00;;;;;;;19.33;100.00;101568.97;5072084;28;20460;-44
2023/08/13 07:46:04;;;;;;;0.00;0.00;;;;;;;19.29;100.00;101583.03;5071831;28;20029;-43
2023/08/13 07:48:30;;;;;;;0.00;0.00;;;;;;;19.32;100.00;101581.75;5071904;28;20021;-43
2023/08/13 07:50:55;;;;;;;0.00;0.00;;;;;;;19.23;100.00;101572.19;5071940;28;20489;-43
2023/08/13 07:53:20;;;;;;;0.00;0.00;;;;;;;19.08;100.00;101575.22;5054060;28;20107;-43
2023/08/13 07:55:49;;;;;;;0.00;0.00;;;;;;;19.13;100.00;101580.88;5071909;28;20081;-43
2023/08/13 07:58:14;;;;;;;0.00;0.00;;;;;;;19.11;100.00;101577.50;5071637;28;20044;-45
2023/08/13 08:00:40;;;;;;;0.00;0.00;;;;;;;19.10;100.00;101569.56;5072045;28;20329;-44
2023/08/13 08:03:06;;;;;;;0.00;0.00;;;;;;;19.11;100.00;101573.97;5071806;28;20474;-45
2023/08/13 08:05:31;;;;;;;0.00;0.00;;;;;;;19.17;100.00;101575.78;5071823;28;20055;-43
2023/08/13 08:07:57;;;;;;;0.00;0.00;;;;;;;19.10;100.00;101577.75;5071494;28;20051;-47
2023/08/13 08:10:23;;;;;;;0.00;0.00;;;;;;;19.37;100.00;101570.19;5071570;28;20489;-44
2023/08/13 08:12:49;;;;;;;0.00;0.00;;;;;;;19.46;100.00;101571.59;5068027;28;20024;-43
2023/08/13 08:15:14;;;;;;;0.00;0.00;;;;;;;19.34;100.00;101585.13;5070618;28;20048;-44
2023/08/13 08:17:39;;;;;;;0.00;0.00;;;;;;;19.29;100.00;101576.75;5069901;28;20493;-43
2023/08/13 08:20:06;;;;;;;0.00;0.00;;;;;;;19.28;100.00;101566.91;5070932;28;20425;-43
2023/08/13 08:22:32;;;;;;;0.00;0.00;;;;;;;19.36;100.00;101569.34;5070115;28;20111;-44
2023/08/13 08:24:57;;;;;;;0.00;0.00;;;;;;;19.42;100.00;101576.66;5071001;28;20108;-45
2023/08/13 08:27:22;;;;;;;0.00;0.00;;;;;;;19.41;100.00;101565.97;5071161;28;20032;-43
2023/08/13 08:29:48;;;;;;;0.00;0.00;;;;;;;19.36;100.00;101555.72;5071199;28;20083;-47
2023/08/13 08:32:13;;;;;;;0.00;0.00;;;;;;;19.35;100.00;101556.75;5070559;28;20145;-45
2023/08/13 08:34:38;;;;;;;0.00;0.00;;;;;;;19.39;100.00;101560.72;5071381;28;20432;-44
2023/08/13 08:37:04;;;;;;;0.00;0.00;;;;;;;19.59;100.00;101559.69;5071105;28;20040;-42
2023/08/13 08:39:30;;;;;;;0.00;0.00;;;;;;;19.65;100.00;101564.28;5070799;28;20028;-44
2023/08/13 08:41:56;;;;;;;0.00;0.00;;;;;;;19.64;100.00;101551.66;5071002;28;20074;-43
2023/08/13 08:44:22;;;;;;;0.00;0.00;;;;;;;19.75;100.00;101556.44;5070885;28;20024;-43
2023/08/13 08:46:53;;;;;;;0.00;0.00;;;;;;;19.75;100.00;101553.72;5071204;28;20428;-46
2023/08/13 08:49:21;;;;;;;0.00;0.00;;;;;;;19.65;100.00;101564.28;5070494;28;20379;-44
2023/08/13 08:51:48;;;;;;;0.00;0.00;;;;;;;19.46;100.00;101561.50;5071056;28;20119;-43
2023/08/13 08:54:14;;;;;;;0.00;0.00;;;;;;;19.39;100.00;101563.44;5071259;28;20035;-46
2023/08/13 08:56:39;;;;;;;0.00;0.00;;;;;;;19.40;100.00;101556.91;5070666;28;20024;-42
2023/08/13 08:59:05;;;;;;;0.00;0.00;;;;;;;19.41;100.00;101555.88;5070632;28;20049;-44
2023/08/13 09:01:32;;;;;;;0.00;0.00;;;;;;;19.55;100.00;101564.78;5070725;28;20076;-44
2023/08/13 09:03:57;;;;;;;0.00;0.00;;;;;;;19.39;100.00;101551.69;5070765;28;20020;-44
2023/08/13 09:06:23;;;;;;;0.00;0.00;;;;;;;19.41;100.00;101557.78;5070631;28;20017;-44
2023/08/13 09:08:49;;;;;;;0.00;0.00;;;;;;;19.45;100.00;101553.53;5070342;28;20029;-42
2023/08/13 09:11:14;;;;;;;0.00;0.00;;;;;;;19.64;100.00;101562.59;5070417;28;20120;-44
2023/08/13 09:13:50;;;;;;;0.00;0.00;;;;;;;19.55;100.00;101558.50;5070594;28;20080;-45
2023/08/13 09:16:15;;;;;;;0.00;0.00;;;;;;;19.49;100.00;101558.31;5070624;28;20104;-44
2023/08/13 09:18:40;;;;;;;0.00;0.00;;;;;;;19.63;100.00;101564.50;5070486;28;20107;-44
2023/08/13 09:21:08;;;;;;;0.00;0.00;;;;;;;19.60;100.00;101556.75;5070460;28;20482;-45
2023/08/13 09:23:37;;;;;;;0.00;0.00;;;;;;;19.64;100.00;101559.84;5070174;28;20057;-45
2023/08/13 09:26:02;;;;;;;0.00;0.00;;;;;;;19.75;100.00;101542.78;5069139;28;20024;-43
2023/08/13 09:28:28;;;;;;;0.00;0.00;;;;;;;19.88;100.00;101541.78;5069761;28;20039;-47
2023/08/13 09:30:53;;;;;;;0.00;0.00;;;;;;;19.90;100.00;101535.03;5051672;28;20029;-44
2023/08/13 09:33:18;;;;;;;0.00;0.00;;;;;;;20.15;100.00;101536.88;5069679;28;20032;-43
2023/08/13 09:35:44;;;;;;;0.00;0.00;;;;;;;20.12;100.00;101523.66;5069520;28;20103;-44
2023/08/13 09:38:10;;;;;;;0.00;0.00;;;;;;;20.29;100.00;101526.59;5069443;28;20027;-46
2023/08/13 09:40:36;;;;;;;0.00;0.00;;;;;;;20.39;100.00;101529.63;5069266;28;20237;-45
2023/08/13 09:43:06;;;;;;;0.00;0.00;;;;;;;20.29;100.00;101516.50;5069756;28;20032;-45
2023/08/13 09:45:33;;;;;;;0.00;0.00;;;;;;;20.06;100.00;101513.63;5073270;28;20024;-47
2023/08/13 09:48:03;;;;;;;0.00;0.00;;;;;;;19.93;100.00;101509.16;5073616;28;20017;-45
2023/08/13 09:50:29;;;;;;;0.00;0.00;;;;;;;19.92;100.00;101511.06;5070006;28;20094;-44
2023/08/13 09:52:56;;;;;;;0.00;0.00;;;;;;;19.83;100.00;101517.06;5055579;28;20033;-45
2023/08/13 09:55:23;;;;;;;0.00;0.00;;;;;;;20.08;100.00;101503.31;5055515;28;20237;-43
2023/08/13 09:57:50;;;;;;;0.00;0.00;;;;;;;20.07;100.00;101499.75;5055244;28;20028;-43
2023/08/13 10:00:16;;;;;;;0.00;0.00;;;;;;;20.05;100.00;101509.25;5055414;28;20028;-47
2023/08/13 10:02:43;;;;;;;0.00;0.00;;;;;;;20.38;100.00;101514.28;5073412;28;20533;-45
2023/08/13 10:05:08;;;;;;;0.00;0.00;;;;;;;20.51;100.00;101510.53;5073162;28;20016;-43
2023/08/13 10:07:36;;;;;;;0.00;0.00;;;;;;;20.80;100.00;101503.41;5073479;28;20020;-44
2023/08/13 10:10:04;;;;;;;0.00;0.00;;;;;;;20.76;100.00;101510.41;5073250;28;20150;-44
2023/08/13 10:12:30;;;;;;;0.00;0.00;;;;;;;20.97;100.00;101501.66;5072975;28;20017;-49
2023/08/13 10:14:56;;;;;;;0.00;0.00;;;;;;;20.82;100.00;101498.53;5055229;28;20031;-45
2023/08/13 10:17:23;;;;;;;0.00;0.00;;;;;;;20.94;100.00;101501.31;5072931;28;20035;-44
2023/08/13 10:19:49;;;;;;;0.00;0.00;;;;;;;20.89;100.00;101499.28;5055089;28;20031;-48
2023/08/13 10:22:23;;;;;;;0.00;0.00;;;;;;;20.94;100.00;101502.13;5073047;28;20029;-45
2023/08/13 10:24:48;;;;;;;0.00;0.00;;;;;;;20.97;100.00;101489.88;5073095;28;20024;-45
2023/08/13 10:27:14;;;;;;;0.00;0.00;;;;;;;21.31;100.00;101501.13;5073200;28;20020;-43
2023/08/13 10:29:42;;;;;;;0.00;0.00;;;;;;;21.24;100.00;101498.47;5073953;28;20024;-43
2023/08/13 10:32:15;;;;;;;0.00;0.00;;;;;;;21.10;100.00;101492.41;5075441;28;20489;-43
2023/08/13 10:34:46;;;;;;;0.00;0.00;;;;;;;20.99;100.00;101487.75;5062941;28;20040;-42
2023/08/13 10:37:22;;;;;;;0.00;0.00;;;;;;;21.18;100.00;101489.31;5074291;28;20037;-41
2023/08/13 10:39:54;;;;;;;0.00;0.00;;;;;;;21.56;100.00;101490.75;5073329;28;20052;-43
2023/08/13 10:42:33;;;;;;;0.00;0.00;;;;;;;21.59;100.00;101484.84;5073540;28;20037;-42
2023/08/13 10:45:09;;;;;;;0.00;0.00;;;;;;;21.98;100.00;101485.09;5073212;28;20117;-43
2023/08/13 10:47:38;;;;;;;0.00;0.00;;;;;;;21.89;100.00;101481.06;5073277;28;20028;-43
2023/08/13 10:50:06;;;;;;;0.00;0.00;;;;;;;22.09;100.00;101481.50;5071271;28;20475;-44
2023/08/13 10:52:32;;;;;;;0.00;0.00;;;;;;;23.12;100.00;101477.94;5069108;28;20398;-43
2023/08/13 10:54:57;;;;;;;0.00;0.00;;;;;;;23.66;100.00;101470.75;5070057;28;20021;-46
2023/08/13 10:57:28;;;;;;;0.00;0.00;;;;;;;23.88;100.00;101476.28;5069539;28;20032;-44
2023/08/13 10:59:54;;;;;;;0.00;0.00;;;;;;;24.80;100.00;101464.63;5069934;28;20059;-45
2023/08/13 11:02:21;;;;;;;0.00;0.00;;;;;;;24.98;100.00;101466.97;5052686;28;20428;-45
2023/08/13 11:04:46;;;;;;;0.00;0.00;;;;;;;25.59;100.00;101467.44;5069798;28;20078;-46
2023/08/13 11:07:15;;;;;;;0.00;0.00;;;;;;;25.92;100.00;101470.91;5069621;28;20574;-46
2023/08/13 11:09:44;;;;;;;0.00;0.00;;;;;;;25.45;100.00;101477.25;5070567;28;20490;-43
2023/08/13 11:12:11;;;;;;;0.00;0.00;;;;;;;24.87;100.00;101484.50;5070400;28;20111;-44